Aviation Digital Data Service (ADDS)

Output produced by METARs form (0419 UTC 04 March 2015)
found at http://aviationweather.gov/adds/metars/
 
KBDL 040139Z 0402/0506 18010KT 2SM -PL BR SCT008 OVC020 
     FM040330 19009KT 1SM -FZRAPL BR BKN008 OVC015 
     FM040600 21009KT 5SM -FZRA BR OVC010 
     FM040900 23007KT P6SM OVC015 
     FM041500 25007KT P6SM OVC035 
     FM050300 30006KT 2SM BR OVC250